Time;durP1;ratioP1;P1;durP2;ratioP2;P2;SDS_P1;SDS_P2;PMS_P1;PMS_P2;Temp;Humidity;BMP_temperature;BMP_pressure;BME280_temperature;BME280_humidity;BME280_pressure;Samples;Min_cycle;Max_cycle;Signal;HPM_P1;HPM_P2
2021/11/07 00:01:18;;;;;;;26.55;5.85;;;;;;;;;;5070191;28;20024;-53
2021/11/07 00:04:00;;;;;;;32.83;6.95;;;;;;;;;;5070339;28;20033;-52
2021/11/07 00:06:35;;;;;;;40.83;6.13;;;;;;;;;;5070261;28;20024;-45
2021/11/07 00:09:13;;;;;;;42.28;6.43;;;;;;;;;;5067244;28;20028;-53
2021/11/07 00:11:42;;;;;;;33.38;6.60;;;;;;;;;;5064389;28;20027;-37
2021/11/07 00:14:11;;;;;;;30.73;5.93;;;;;;;;;;5069816;28;20021;-46
2021/11/07 00:16:39;;;;;;;28.05;5.05;;;;;;;;;;5067713;28;20028;-49
2021/11/07 00:19:19;;;;;;;28.17;5.57;;;;;;;;;;5070274;28;20025;-43
2021/11/07 00:27:05;;;;;;;26.63;5.38;;;;;;;;;;5061508;28;20036;-44
2021/11/07 00:29:40;;;;;;;29.27;5.78;;;;;;;;;;5050401;28;20063;-45
2021/11/07 00:32:20;;;;;;;20.25;5.30;;;;;;;;;;5058580;28;20029;-45
2021/11/07 00:37:38;;;;;;;27.58;5.60;;;;;;;;;;5070748;28;20025;-46
2021/11/07 00:43:28;;;;;;;35.40;6.38;;;;;;;;;;5071352;28;20660;-43
2021/11/07 00:45:30;;;;;;;31.27;6.22;;;;;;;;;;5056360;28;20036;-39
2021/11/07 00:50:56;;;;;;;34.05;6.45;;;;;;;;;;5066318;28;20076;-35
2021/11/07 00:56:13;;;;;;;27.95;5.45;;;;;;;;;;5062029;28;20033;-43
2021/11/07 00:58:43;;;;;;;29.30;6.07;;;;;;;;;;5056069;28;20064;-36
2021/11/07 01:01:14;;;;;;;27.85;5.88;;;;;;;;;;5057094;28;20033;-38
2021/11/07 01:03:42;;;;;;;21.50;5.45;;;;;;;;;;5063915;28;20024;-41
2021/11/07 01:06:10;;;;;;;28.20;7.85;;;;;;;;;;5050362;28;20057;-46
2021/11/07 01:08:37;;;;;;;33.47;6.70;;;;;;;;;;5050631;28;20028;-45
2021/11/07 01:11:04;;;;;;;44.20;8.63;;;;;;;;;;5051709;28;20021;-43
2021/11/07 01:13:32;;;;;;;62.60;8.55;;;;;;;;;;5049681;28;20108;-35
2021/11/07 01:15:59;;;;;;;34.30;7.90;;;;;;;;;;5053831;28;20021;-34
2021/11/07 01:18:26;;;;;;;31.40;9.38;;;;;;;;;;5050031;28;20571;-43
2021/11/07 01:20:53;;;;;;;40.60;8.50;;;;;;;;;;5053643;28;20135;-34
2021/11/07 01:23:27;;;;;;;36.50;8.98;;;;;;;;;;5049870;28;20043;-44
2021/11/07 01:26:02;;;;;;;51.75;10.40;;;;;;;;;;5054456;28;20021;-43
2021/11/07 01:28:36;;;;;;;45.28;9.57;;;;;;;;;;5056341;28;20025;-41
2021/11/07 01:31:03;;;;;;;48.63;10.80;;;;;;;;;;5051147;28;20041;-33
2021/11/07 01:33:31;;;;;;;33.22;9.68;;;;;;;;;;5053363;28;20079;-39
2021/11/07 01:36:20;;;;;;;48.33;10.98;;;;;;;;;;5052599;28;20508;-44
2021/11/07 01:38:55;;;;;;;46.67;11.07;;;;;;;;;;5054780;28;20045;-38
2021/11/07 01:42:11;;;;;;;39.53;10.98;;;;;;;;;;5054432;28;20025;-40
2021/11/07 01:44:14;;;;;;;34.33;10.93;;;;;;;;;;5052487;28;20040;-44
2021/11/07 01:46:49;;;;;;;28.20;10.70;;;;;;;;;;5067103;28;20039;-44
2021/11/07 01:49:21;;;;;;;30.98;10.85;;;;;;;;;;5056190;28;20036;-41
2021/11/07 01:51:52;;;;;;;34.58;10.98;;;;;;;;;;5067477;28;20506;-36
2021/11/07 01:54:34;;;;;;;39.53;11.27;;;;;;;;;;5067659;28;20044;-46
2021/11/07 01:57:01;;;;;;;44.80;12.38;;;;;;;;;;5065456;28;20099;-44
2021/11/07 01:59:28;;;;;;;38.00;11.85;;;;;;;;;;5056329;28;20025;-45
2021/11/07 02:02:00;;;;;;;43.17;12.63;;;;;;;;;;5067683;28;20496;-43
2021/11/07 02:04:27;;;;;;;;;;;;;;;;;;5059085;28;20029;-38
2021/11/07 02:06:54;;;;;;;43.05;12.38;;;;;;;;;;5058790;28;19909;-39
2021/11/07 02:09:21;;;;;;;33.75;11.68;;;;;;;;;;5060144;28;20036;-38
2021/11/07 02:11:48;;;;;;;28.63;10.95;;;;;;;;;;5055428;28;20096;-42
2021/11/07 02:14:16;;;;;;;38.97;11.30;;;;;;;;;;5040605;28;20449;-44
2021/11/07 02:16:43;;;;;;;42.08;12.52;;;;;;;;;;5059592;28;20104;-38
2021/11/07 02:19:15;;;;;;;32.88;11.93;;;;;;;;;;5058907;28;20036;-42
2021/11/07 02:21:42;;;;;;;41.33;11.85;;;;;;;;;;5055795;28;20025;-34
2021/11/07 02:24:14;;;;;;;29.23;10.35;;;;;;;;;;5061129;28;20037;-44
2021/11/07 02:26:43;;;;;;;24.33;10.67;;;;;;;;;;5059672;28;20021;-41
2021/11/07 02:29:10;;;;;;;33.30;10.77;;;;;;;;;;5060571;28;20021;-46
2021/11/07 02:31:37;;;;;;;33.63;10.93;;;;;;;;;;5064964;28;20067;-44
2021/11/07 02:34:04;;;;;;;33.13;10.02;;;;;;;;;;5062581;28;20025;-45
2021/11/07 02:36:31;;;;;;;28.30;10.60;;;;;;;;;;5071909;28;20387;-44
2021/11/07 02:38:58;;;;;;;36.55;10.52;;;;;;;;;;5073269;28;20024;-44
2021/11/07 02:41:25;;;;;;;34.63;10.45;;;;;;;;;;5072921;28;20108;-45
2021/11/07 02:43:54;;;;;;;39.55;10.15;;;;;;;;;;5072952;28;20561;-46
2021/11/07 02:46:21;;;;;;;25.80;9.70;;;;;;;;;;5072884;28;20114;-44
2021/11/07 02:48:54;;;;;;;33.25;9.57;;;;;;;;;;5071773;28;20036;-44
2021/11/07 02:51:35;;;;;;;35.85;9.55;;;;;;;;;;5072077;28;20484;-44
2021/11/07 02:54:04;;;;;;;23.17;8.55;;;;;;;;;;5072342;28;20019;-44
2021/11/07 02:56:31;;;;;;;30.20;8.82;;;;;;;;;;5068781;28;20024;-46
2021/11/07 02:58:59;;;;;;;30.00;9.30;;;;;;;;;;5071460;28;20499;-46
2021/11/07 03:01:27;;;;;;;29.98;8.52;;;;;;;;;;5071490;28;20423;-38
2021/11/07 03:04:01;;;;;;;26.27;9.73;;;;;;;;;;5068939;28;20086;-33
2021/11/07 03:06:33;;;;;;;28.90;9.25;;;;;;;;;;5072741;28;20423;-37
2021/11/07 03:09:01;;;;;;;23.42;8.55;;;;;;;;;;5072759;28;20024;-43
2021/11/07 03:11:29;;;;;;;23.48;8.55;;;;;;;;;;5072269;28;20033;-43
2021/11/07 03:14:06;;;;;;;28.02;8.45;;;;;;;;;;5072312;28;20045;-40
2021/11/07 03:16:34;;;;;;;33.60;8.95;;;;;;;;;;5072544;28;20024;-35
2021/11/07 03:19:02;;;;;;;26.20;9.10;;;;;;;;;;5072258;28;20029;-37
2021/11/07 03:21:29;;;;;;;33.78;7.70;;;;;;;;;;5072327;28;20033;-42
2021/11/07 03:23:58;;;;;;;18.50;7.47;;;;;;;;;;5072183;28;20031;-34
2021/11/07 03:26:28;;;;;;;19.80;8.07;;;;;;;;;;5054426;28;20480;-40
2021/11/07 03:29:00;;;;;;;25.13;8.10;;;;;;;;;;5072381;28;20108;-38
2021/11/07 03:34:14;;;;;;;20.30;7.72;;;;;;;;;;5072297;28;19905;-38
2021/11/07 03:36:47;;;;;;;34.42;7.57;;;;;;;;;;5072091;28;20052;-45
2021/11/07 03:39:16;;;;;;;22.25;7.35;;;;;;;;;;5072129;28;20361;-40
2021/11/07 03:41:44;;;;;;;27.05;7.60;;;;;;;;;;5071988;28;20032;-38
2021/11/07 03:44:13;;;;;;;19.48;6.47;;;;;;;;;;5071671;28;20017;-41
2021/11/07 03:46:40;;;;;;;22.73;6.60;;;;;;;;;;5072185;28;20021;-42
2021/11/07 03:49:10;;;;;;;22.13;6.90;;;;;;;;;;5071558;28;20087;-41
2021/11/07 03:51:37;;;;;;;27.45;7.30;;;;;;;;;;5072049;28;20500;-46
2021/11/07 03:54:05;;;;;;;20.13;6.28;;;;;;;;;;5072026;28;20024;-42
2021/11/07 03:56:33;;;;;;;18.65;6.43;;;;;;;;;;5053326;28;20051;-36
2021/11/07 03:59:01;;;;;;;17.17;6.45;;;;;;;;;;5070660;28;20384;-40
2021/11/07 04:01:29;;;;;;;17.45;6.65;;;;;;;;;;5053792;28;20078;-37
2021/11/07 04:03:57;;;;;;;18.27;7.45;;;;;;;;;;5071721;28;20020;-47
2021/11/07 04:06:24;;;;;;;16.80;6.15;;;;;;;;;;5071485;28;20411;-39
2021/11/07 04:08:52;;;;;;;16.55;5.65;;;;;;;;;;5054267;28;20031;-41
2021/11/07 04:11:20;;;;;;;19.52;6.25;;;;;;;;;;5071522;28;20055;-40
2021/11/07 04:13:47;;;;;;;20.50;5.88;;;;;;;;;;5071658;28;20025;-48
2021/11/07 04:16:15;;;;;;;19.85;5.68;;;;;;;;;;5071586;28;20476;-45
2021/11/07 04:18:44;;;;;;;14.38;6.40;;;;;;;;;;5071420;28;20376;-47
2021/11/07 04:21:11;;;;;;;19.20;6.63;;;;;;;;;;5071201;28;20017;-43
2021/11/07 04:23:38;;;;;;;17.23;5.88;;;;;;;;;;5070872;28;20021;-44
2021/11/07 04:26:06;;;;;;;15.07;6.15;;;;;;;;;;5071671;28;20086;-45
2021/11/07 04:28:33;;;;;;;20.65;5.68;;;;;;;;;;5071820;28;20052;-45
2021/11/07 04:31:00;;;;;;;13.80;5.13;;;;;;;;;;5071555;28;20058;-41
2021/11/07 04:33:27;;;;;;;15.18;5.70;;;;;;;;;;5071790;28;20025;-47
2021/11/07 04:35:54;;;;;;;16.40;5.68;;;;;;;;;;5071506;28;20711;-44
2021/11/07 04:38:22;;;;;;;14.30;5.13;;;;;;;;;;5053247;28;20025;-45
2021/11/07 04:40:49;;;;;;;18.42;5.28;;;;;;;;;;5071481;28;20041;-47
2021/11/07 04:43:17;;;;;;;14.10;5.15;;;;;;;;;;5071366;28;20027;-45
2021/11/07 04:45:44;;;;;;;12.40;5.13;;;;;;;;;;5071233;28;20032;-47
2021/11/07 04:48:11;;;;;;;11.90;5.75;;;;;;;;;;5071426;28;20044;-46
2021/11/07 04:50:39;;;;;;;10.13;5.05;;;;;;;;;;5071428;28;20032;-45
2021/11/07 04:53:11;;;;;;;13.73;5.53;;;;;;;;;;5071325;28;20032;-46
2021/11/07 04:55:41;;;;;;;12.53;5.23;;;;;;;;;;5071591;28;20020;-46
2021/11/07 04:58:08;;;;;;;14.18;5.93;;;;;;;;;;5071433;28;20695;-46
2021/11/07 05:00:36;;;;;;;12.02;4.95;;;;;;;;;;5071285;28;20112;-46
2021/11/07 05:03:04;;;;;;;11.65;5.03;;;;;;;;;;5071310;28;20013;-46
2021/11/07 05:05:32;;;;;;;11.85;4.57;;;;;;;;;;5071509;28;20032;-46
2021/11/07 05:07:59;;;;;;;11.45;4.55;;;;;;;;;;5071164;28;20016;-46
2021/11/07 05:10:26;;;;;;;14.57;5.30;;;;;;;;;;5072363;28;20028;-46
2021/11/07 05:12:53;;;;;;;13.75;5.40;;;;;;;;;;5075278;28;20024;-46
2021/11/07 05:15:20;;;;;;;12.65;5.07;;;;;;;;;;5074958;28;20051;-46
2021/11/07 05:17:48;;;;;;;14.55;4.90;;;;;;;;;;5074737;28;20016;-46
2021/11/07 05:20:15;;;;;;;8.68;4.22;;;;;;;;;;5075035;28;20601;-45
2021/11/07 05:22:42;;;;;;;10.10;4.70;;;;;;;;;;5074744;28;20032;-46
2021/11/07 05:25:10;;;;;;;10.38;4.65;;;;;;;;;;5074793;28;20020;-46
2021/11/07 05:27:38;;;;;;;7.45;4.25;;;;;;;;;;5074913;28;20077;-46
2021/11/07 05:30:06;;;;;;;12.75;4.60;;;;;;;;;;5074781;28;20380;-44
2021/11/07 05:32:33;;;;;;;10.23;4.65;;;;;;;;;;5074746;28;20029;-45
2021/11/07 05:35:00;;;;;;;8.43;4.32;;;;;;;;;;5056596;28;20031;-46
2021/11/07 05:37:27;;;;;;;9.15;4.03;;;;;;;;;;5056498;28;20024;-47
2021/11/07 05:39:54;;;;;;;9.07;4.25;;;;;;;;;;5074529;28;20025;-47
2021/11/07 05:42:22;;;;;;;7.93;4.40;;;;;;;;;;5074653;28;20055;-45
2021/11/07 05:44:49;;;;;;;8.13;4.30;;;;;;;;;;5074311;28;20391;-46
2021/11/07 05:47:16;;;;;;;8.50;4.07;;;;;;;;;;5074184;28;20071;-45
2021/11/07 05:49:43;;;;;;;7.20;3.78;;;;;;;;;;5074309;28;20035;-46
2021/11/07 05:52:10;;;;;;;10.85;4.57;;;;;;;;;;5074345;28;20458;-45
2021/11/07 05:54:37;;;;;;;8.23;4.15;;;;;;;;;;5074354;28;20017;-46
2021/11/07 05:57:04;;;;;;;8.52;4.30;;;;;;;;;;5074233;28;20468;-45
2021/11/07 05:59:31;;;;;;;11.65;4.40;;;;;;;;;;5074153;28;20035;-47
2021/11/07 06:01:58;;;;;;;8.35;4.07;;;;;;;;;;5074056;28;20028;-48
2021/11/07 06:04:26;;;;;;;8.00;3.63;;;;;;;;;;5073816;28;20020;-45
2021/11/07 06:06:53;;;;;;;9.50;4.50;;;;;;;;;;5074075;28;20103;-46
2021/11/07 06:09:20;;;;;;;8.73;4.20;;;;;;;;;;5073986;28;20024;-44
2021/11/07 06:11:47;;;;;;;9.52;3.90;;;;;;;;;;5073590;28;20083;-46
2021/11/07 06:14:15;;;;;;;8.40;3.88;;;;;;;;;;5071969;28;20047;-45
2021/11/07 06:16:42;;;;;;;7.30;3.75;;;;;;;;;;5073628;28;20539;-46
2021/11/07 06:19:09;;;;;;;8.68;3.88;;;;;;;;;;5073502;28;20480;-47
2021/11/07 06:21:37;;;;;;;7.88;3.63;;;;;;;;;;5073010;28;20024;-44
2021/11/07 06:24:08;;;;;;;8.15;3.53;;;;;;;;;;5073377;28;20415;-42
2021/11/07 06:26:35;;;;;;;9.48;3.53;;;;;;;;;;5073498;28;20040;-44
2021/11/07 06:29:02;;;;;;;8.23;3.72;;;;;;;;;;5073821;28;20031;-44
2021/11/07 06:31:29;;;;;;;6.13;3.50;;;;;;;;;;5073223;28;20013;-45
2021/11/07 06:33:56;;;;;;;6.50;3.35;;;;;;;;;;5073352;28;20031;-45
2021/11/07 06:36:23;;;;;;;6.90;3.58;;;;;;;;;;5073526;28;20016;-46
2021/11/07 06:38:50;;;;;;;8.00;3.25;;;;;;;;;;5073270;28;20126;-46
2021/11/07 06:41:17;;;;;;;6.03;3.42;;;;;;;;;;5073164;28;20016;-45
2021/11/07 06:43:44;;;;;;;7.43;3.70;;;;;;;;;;5073428;28;20016;-46
2021/11/07 06:46:11;;;;;;;6.45;3.40;;;;;;;;;;5073588;28;20538;-46
2021/11/07 06:48:38;;;;;;;7.57;3.30;;;;;;;;;;5072955;28;20052;-46
2021/11/07 06:51:06;;;;;;;8.95;3.50;;;;;;;;;;5055440;28;20423;-46
2021/11/07 06:53:35;;;;;;;7.30;3.55;;;;;;;;;;5072968;28;20035;-46
2021/11/07 06:56:02;;;;;;;5.60;3.15;;;;;;;;;;5073108;28;20044;-45
2021/11/07 06:58:29;;;;;;;7.68;3.58;;;;;;;;;;5055007;28;20443;-42
2021/11/07 07:00:56;;;;;;;5.53;3.33;;;;;;;;;;5073187;28;20542;-46
2021/11/07 07:03:23;;;;;;;6.30;3.30;;;;;;;;;;5072774;28;20093;-46
2021/11/07 07:05:50;;;;;;;6.68;3.67;;;;;;;;;;5072950;28;20384;-45
2021/11/07 07:08:21;;;;;;;6.68;3.13;;;;;;;;;;5072990;28;20032;-46
2021/11/07 07:10:54;;;;;;;5.63;3.15;;;;;;;;;;5072961;28;20036;-48
2021/11/07 07:13:35;;;;;;;5.60;3.13;;;;;;;;;;5072708;28;20020;-47
2021/11/07 07:16:17;;;;;;;7.95;2.78;;;;;;;;;;5072362;28;20032;-45
2021/11/07 07:21:43;;;;;;;6.53;3.20;;;;;;;;;;5073050;28;20040;-44
2021/11/07 07:35:04;;;;;;;5.97;2.72;;;;;;;;;;5047231;28;19908;-46
2021/11/07 07:37:31;;;;;;;7.07;2.97;;;;;;;;;;5072077;28;20024;-43
2021/11/07 07:39:58;;;;;;;8.27;2.90;;;;;;;;;;5072155;28;20033;-45
2021/11/07 07:42:25;;;;;;;4.43;2.38;;;;;;;;;;5072390;28;20441;-46
2021/11/07 07:44:53;;;;;;;5.75;2.67;;;;;;;;;;5072287;28;20021;-46
2021/11/07 07:47:20;;;;;;;6.38;2.40;;;;;;;;;;5071828;28;20048;-43
2021/11/07 07:49:51;;;;;;;5.45;2.63;;;;;;;;;;5072109;28;20077;-45
2021/11/07 07:52:22;;;;;;;3.92;2.47;;;;;;;;;;5072204;28;20031;-46
2021/11/07 07:54:49;;;;;;;9.02;3.28;;;;;;;;;;5072210;28;20021;-45
2021/11/07 07:57:16;;;;;;;5.07;2.67;;;;;;;;;;5071896;28;20166;-48
2021/11/07 07:59:44;;;;;;;4.22;2.80;;;;;;;;;;5072132;28;20033;-47
2021/11/07 08:02:11;;;;;;;6.63;2.80;;;;;;;;;;5071761;28;20046;-43
2021/11/07 08:04:38;;;;;;;7.60;2.40;;;;;;;;;;5071759;28;20032;-43
2021/11/07 08:07:05;;;;;;;4.32;2.40;;;;;;;;;;5072010;28;20016;-43
2021/11/07 08:09:32;;;;;;;4.72;2.20;;;;;;;;;;5071815;28;20397;-43
2021/11/07 08:11:59;;;;;;;6.63;2.50;;;;;;;;;;5071895;28;20519;-44
2021/11/07 08:14:26;;;;;;;7.25;2.50;;;;;;;;;;5072029;28;20388;-44
2021/11/07 08:16:53;;;;;;;7.15;2.50;;;;;;;;;;5071583;28;20590;-46
2021/11/07 08:19:20;;;;;;;3.70;2.25;;;;;;;;;;5071780;28;20024;-46
2021/11/07 08:21:47;;;;;;;4.70;2.47;;;;;;;;;;5071822;28;20033;-46
2021/11/07 08:24:14;;;;;;;5.40;2.60;;;;;;;;;;5071798;28;20024;-43
2021/11/07 08:26:42;;;;;;;5.50;2.50;;;;;;;;;;5071671;28;20082;-45
2021/11/07 08:29:12;;;;;;;6.68;2.35;;;;;;;;;;5071693;28;20492;-45
2021/11/07 08:31:41;;;;;;;5.90;2.03;;;;;;;;;;5071458;28;20032;-45
2021/11/07 08:34:08;;;;;;;3.80;2.40;;;;;;;;;;5071579;28;20473;-44
2021/11/07 08:36:46;;;;;;;3.50;2.10;;;;;;;;;;5071499;28;20021;-47
2021/11/07 08:39:19;;;;;;;5.20;2.47;;;;;;;;;;5053429;28;20043;-47
2021/11/07 08:41:57;;;;;;;6.38;2.17;;;;;;;;;;5071561;28;20103;-45
2021/11/07 09:01:00;;;;;;;5.70;2.20;;;;;;;;;;5075189;28;20082;-45
2021/11/07 09:04:19;;;;;;;3.50;2.05;;;;;;;;;;5075207;28;20033;-46
2021/11/07 09:08:52;;;;;;;7.90;2.20;;;;;;;;;;5075126;28;20024;-46
2021/11/07 09:11:20;;;;;;;3.67;1.88;;;;;;;;;;5075297;28;20025;-45
2021/11/07 09:13:48;;;;;;;4.80;2.15;;;;;;;;;;5075116;28;20380;-41
2021/11/07 09:16:15;;;;;;;5.07;2.40;;;;;;;;;;5074982;28;20021;-43
2021/11/07 09:18:42;;;;;;;6.30;2.40;;;;;;;;;;5075052;28;20383;-44
2021/11/07 09:21:15;;;;;;;3.80;1.80;;;;;;;;;;5075053;28;20449;-45
2021/11/07 09:23:48;;;;;;;5.18;2.25;;;;;;;;;;5074705;28;20033;-44
2021/11/07 09:26:26;;;;;;;7.65;2.45;;;;;;;;;;5074541;28;20086;-47
2021/11/07 09:36:39;;;;;;;4.28;2.00;;;;;;;;;;5074954;28;20024;-42
2021/11/07 09:39:16;;;;;;;3.47;2.20;;;;;;;;;;5074587;28;20111;-42
2021/11/07 09:44:14;;;;;;;3.92;1.95;;;;;;;;;;5074554;28;20025;-43
2021/11/07 09:49:26;;;;;;;3.90;1.70;;;;;;;;;;5070365;28;20036;-45
2021/11/07 09:51:56;;;;;;;3.85;2.05;;;;;;;;;;5074427;28;20032;-45
2021/11/07 09:54:23;;;;;;;4.53;2.20;;;;;;;;;;5074491;28;20058;-47
2021/11/07 09:56:53;;;;;;;7.28;2.63;;;;;;;;;;5074230;28;20023;-46
2021/11/07 09:59:20;;;;;;;5.50;2.38;;;;;;;;;;5074049;28;20039;-44
2021/11/07 10:01:57;;;;;;;3.97;2.50;;;;;;;;;;5074216;28;20082;-44
2021/11/07 10:04:29;;;;;;;4.38;2.53;;;;;;;;;;5074625;28;20016;-46
2021/11/07 10:07:12;;;;;;;6.75;2.45;;;;;;;;;;5074104;28;20377;-45
2021/11/07 10:09:41;;;;;;;5.20;2.60;;;;;;;;;;5074050;28;20395;-45
2021/11/07 10:12:13;;;;;;;4.88;2.60;;;;;;;;;;5073879;28;20021;-45
2021/11/07 10:14:41;;;;;;;5.72;2.63;;;;;;;;;;5074146;28;20020;-46
2021/11/07 10:17:27;;;;;;;11.10;2.97;;;;;;;;;;5074006;28;20048;-47
2021/11/07 10:20:00;;;;;;;3.88;2.75;;;;;;;;;;5073916;28;20115;-43
2021/11/07 10:22:31;;;;;;;6.90;2.97;;;;;;;;;;5073640;28;20024;-46
2021/11/07 10:24:58;;;;;;;5.72;2.30;;;;;;;;;;5073492;28;20086;-44
2021/11/07 10:27:26;;;;;;;8.13;2.88;;;;;;;;;;5073796;28;20032;-46
2021/11/07 10:30:05;;;;;;;6.18;2.67;;;;;;;;;;5073651;28;20021;-45
2021/11/07 10:32:36;;;;;;;4.53;2.70;;;;;;;;;;5073564;28;20027;-45
2021/11/07 10:35:51;;;;;;;6.17;2.70;;;;;;;;;;5073484;28;20051;-46
2021/11/07 10:38:38;;;;;;;5.05;2.60;;;;;;;;;;5072643;28;20139;-44
2021/11/07 10:47:26;;;;;;;5.28;2.50;;;;;;;;;;4972302;28;20027;-40
2021/11/07 10:52:42;;;;;;;5.38;2.58;;;;;;;;;;5073472;28;20078;-43
2021/11/07 10:55:18;;;;;;;3.30;2.10;;;;;;;;;;5073086;28;20024;-47
2021/11/07 10:57:53;;;;;;;7.15;2.60;;;;;;;;;;5073384;28;20590;-47
2021/11/07 11:00:26;;;;;;;5.68;2.28;;;;;;;;;;5073352;28;20044;-46
2021/11/07 11:03:04;;;;;;;5.50;2.25;;;;;;;;;;5073033;28;20020;-46
2021/11/07 11:05:47;;;;;;;4.90;2.40;;;;;;;;;;5073055;28;20025;-46
2021/11/07 11:08:23;;;;;;;5.78;2.53;;;;;;;;;;5072522;28;20107;-43
2021/11/07 11:19:20;;;;;;;5.32;2.70;;;;;;;;;;5072855;28;20029;-46
2021/11/07 11:24:39;;;;;;;6.65;2.65;;;;;;;;;;5072880;28;20070;-46
2021/11/07 11:27:15;;;;;;;9.15;2.50;;;;;;;;;;5072458;28;20099;-45
2021/11/07 11:35:12;;;;;;;4.85;2.38;;;;;;;;;;5072921;28;20039;-44
2021/11/07 11:40:34;;;;;;;6.18;2.65;;;;;;;;;;5072345;28;20174;-45
2021/11/07 11:43:10;;;;;;;4.97;2.42;;;;;;;;;;5072386;28;20074;-46
2021/11/07 11:45:40;;;;;;;5.22;2.20;;;;;;;;;;5072136;28;20020;-44
2021/11/07 11:55:12;;;;;;;5.82;2.47;;;;;;;;;;5072541;28;20078;-45
2021/11/07 11:57:27;;;;;;;6.80;3.05;;;;;;;;;;5054543;28;20029;-43
2021/11/07 12:02:45;;;;;;;4.65;2.38;;;;;;;;;;5072237;28;19951;-46
2021/11/07 12:05:24;;;;;;;3.88;1.90;;;;;;;;;;5072015;28;20027;-47
2021/11/07 12:11:20;;;;;;;6.05;2.88;;;;;;;;;;5060117;28;20029;-46
2021/11/07 12:13:52;;;;;;;2.78;2.05;;;;;;;;;;5071938;28;20036;-44
2021/11/07 12:16:39;;;;;;;4.03;1.95;;;;;;;;;;5071754;28;20029;-47
2021/11/07 12:19:09;;;;;;;4.18;2.40;;;;;;;;;;5071767;28;20024;-45
2021/11/07 12:21:55;;;;;;;4.72;2.25;;;;;;;;;;5071510;28;20129;-45
2021/11/07 12:24:28;;;;;;;4.35;1.60;;;;;;;;;;5072125;28;20375;-44
2021/11/07 12:27:14;;;;;;;3.88;1.85;;;;;;;;;;5071623;28;20038;-46
2021/11/07 12:29:45;;;;;;;5.68;2.22;;;;;;;;;;5071771;28;20163;-42
2021/11/07 12:32:13;;;;;;;7.72;2.22;;;;;;;;;;5071949;28;20044;-43
2021/11/07 12:35:41;;;;;;;2.95;1.52;;;;;;;;;;5071926;28;20103;-44
2021/11/07 12:40:40;;;;;;;6.80;2.25;;;;;;;;;;5033482;28;20039;-45
2021/11/07 12:43:18;;;;;;;2.72;1.70;;;;;;;;;;5072013;28;20033;-43
2021/11/07 12:45:50;;;;;;;3.40;1.70;;;;;;;;;;5071682;28;20021;-45
2021/11/07 12:48:37;;;;;;;3.20;1.33;;;;;;;;;;5071616;28;20037;-44
2021/11/07 12:51:06;;;;;;;4.15;1.73;;;;;;;;;;5071568;28;20052;-45
2021/11/07 12:53:51;;;;;;;3.65;1.60;;;;;;;;;;5053568;28;20389;-45
2021/11/07 12:56:47;;;;;;;3.08;1.58;;;;;;;;;;5071581;28;20107;-44
2021/11/07 12:59:19;;;;;;;2.83;1.35;;;;;;;;;;5050635;28;20085;-45
2021/11/07 13:02:05;;;;;;;4.03;1.60;;;;;;;;;;5071600;28;20024;-43
2021/11/07 13:04:45;;;;;;;2.72;1.50;;;;;;;;;;5051255;28;20058;-45
2021/11/07 13:07:54;;;;;;;2.65;1.35;;;;;;;;;;5051361;28;20021;-45
2021/11/07 13:10:34;;;;;;;5.05;1.80;;;;;;;;;;5039684;28;20500;-47
2021/11/07 13:13:06;;;;;;;2.95;1.60;;;;;;;;;;5063068;28;20395;-45
2021/11/07 13:21:13;;;;;;;7.88;1.75;;;;;;;;;;5069800;28;20182;-45
2021/11/07 13:23:54;;;;;;;6.60;1.77;;;;;;;;;;5071225;28;20031;-45
2021/11/07 13:29:27;;;;;;;5.22;1.92;;;;;;;;;;5052565;28;20033;-42
2021/11/07 13:32:11;;;;;;;5.18;2.00;;;;;;;;;;5057553;28;20508;-43
2021/11/07 13:34:51;;;;;;;7.22;1.42;;;;;;;;;;5057020;28;20110;-43
2021/11/07 13:37:23;;;;;;;4.75;1.33;;;;;;;;;;5057917;28;20029;-40
2021/11/07 13:39:50;;;;;;;9.40;1.95;;;;;;;;;;5060125;28;20041;-45
2021/11/07 13:42:18;;;;;;;13.20;1.77;;;;;;;;;;5058594;28;20040;-44
2021/11/07 13:44:58;;;;;;;7.22;1.70;;;;;;;;;;5068303;28;20108;-44
2021/11/07 13:47:32;;;;;;;6.15;1.60;;;;;;;;;;5063851;28;20563;-45
2021/11/07 13:50:01;;;;;;;8.15;1.90;;;;;;;;;;5068221;28;20104;-43
2021/11/07 13:52:32;;;;;;;5.07;1.73;;;;;;;;;;5070768;28;20132;-45
2021/11/07 13:54:59;;;;;;;7.85;1.55;;;;;;;;;;5067195;28;20021;-44
2021/11/07 13:57:30;;;;;;;7.70;1.92;;;;;;;;;;5071476;28;20033;-42
2021/11/07 13:59:58;;;;;;;6.60;1.48;;;;;;;;;;5045213;28;20036;-43
2021/11/07 14:02:26;;;;;;;6.28;1.30;;;;;;;;;;5063632;28;20010;-44
2021/11/07 14:04:53;;;;;;;3.67;1.40;;;;;;;;;;5065879;28;20032;-46
2021/11/07 14:07:22;;;;;;;8.35;1.42;;;;;;;;;;5068145;28;20028;-46
2021/11/07 14:10:04;;;;;;;4.93;1.30;;;;;;;;;;5063347;28;20032;-45
2021/11/07 14:12:42;;;;;;;6.70;1.40;;;;;;;;;;5069802;28;20024;-44
2021/11/07 14:15:22;;;;;;;3.42;1.48;;;;;;;;;;5065241;28;20029;-42
2021/11/07 14:17:51;;;;;;;11.90;1.55;;;;;;;;;;5065394;28;20539;-43
2021/11/07 14:20:38;;;;;;;7.72;1.70;;;;;;;;;;5071283;28;20045;-44
2021/11/07 14:23:15;;;;;;;5.38;1.27;;;;;;;;;;5062036;28;20025;-45
2021/11/07 14:25:47;;;;;;;8.82;1.63;;;;;;;;;;5062834;28;20021;-43
2021/11/07 14:28:25;;;;;;;9.30;1.73;;;;;;;;;;5070946;28;20507;-45
2021/11/07 14:30:52;;;;;;;5.50;1.48;;;;;;;;;;5056339;28;20056;-44
2021/11/07 14:33:28;;;;;;;7.60;1.42;;;;;;;;;;5054717;28;20058;-45
2021/11/07 14:36:02;;;;;;;10.55;1.48;;;;;;;;;;5053154;28;20067;-45
2021/11/07 14:38:38;;;;;;;15.32;1.70;;;;;;;;;;5043328;28;20028;-45
2021/11/07 14:41:13;;;;;;;15.13;2.08;;;;;;;;;;5055516;28;20083;-44
2021/11/07 14:44:29;;;;;;;13.63;2.03;;;;;;;;;;5066684;28;20506;-45
2021/11/07 14:49:27;;;;;;;9.40;2.05;;;;;;;;;;5059595;28;20091;-44
2021/11/07 14:52:11;;;;;;;9.63;1.55;;;;;;;;;;5061178;28;20487;-45
2021/11/07 14:54:49;;;;;;;8.48;1.80;;;;;;;;;;5070262;28;20020;-46
2021/11/07 15:05:21;;;;;;;9.88;2.30;;;;;;;;;;5056384;28;20074;-45
2021/11/07 15:07:51;;;;;;;13.43;2.13;;;;;;;;;;5064836;28;20031;-44
2021/11/07 15:13:00;;;;;;;11.30;1.98;;;;;;;;;;5051279;28;20632;-53
2021/11/07 15:18:22;;;;;;;16.65;1.90;;;;;;;;;;5060987;28;20024;-46
2021/11/07 15:21:38;;;;;;;11.25;2.30;;;;;;;;;;5046490;28;20043;-48
2021/11/07 15:23:39;;;;;;;8.60;1.98;;;;;;;;;;5054807;28;20043;-44
2021/11/07 15:26:33;;;;;;;15.25;2.22;;;;;;;;;;5061444;28;20052;-44
2021/11/07 15:29:04;;;;;;;17.75;2.30;;;;;;;;;;5053608;28;20082;-42
2021/11/07 15:31:32;;;;;;;14.80;2.25;;;;;;;;;;5058617;28;20025;-44
2021/11/07 15:34:01;;;;;;;9.30;1.90;;;;;;;;;;5062701;28;20021;-43
2021/11/07 15:36:30;;;;;;;13.73;2.10;;;;;;;;;;5058738;28;20025;-44
2021/11/07 15:39:33;;;;;;;14.57;2.17;;;;;;;;;;5054282;28;20045;-43
2021/11/07 15:41:59;;;;;;;;;;;;;;;;;;4971912;28;20042;-39
2021/11/07 15:44:26;;;;;;;9.27;2.45;;;;;;;;;;5048827;28;19930;-40
2021/11/07 15:46:58;;;;;;;13.15;2.35;;;;;;;;;;5063689;28;20032;-35
2021/11/07 15:49:25;;;;;;;17.48;2.22;;;;;;;;;;5061765;28;20056;-35
2021/11/07 15:52:01;;;;;;;21.50;2.88;;;;;;;;;;5059677;28;20048;-40
2021/11/07 15:54:31;;;;;;;11.25;2.08;;;;;;;;;;5060782;28;20396;-43
2021/11/07 15:57:17;;;;;;;17.05;2.50;;;;;;;;;;5059280;28;20419;-44
2021/11/07 15:59:55;;;;;;;18.67;2.30;;;;;;;;;;5055460;28;20351;-41
2021/11/07 16:02:37;;;;;;;15.40;2.88;;;;;;;;;;5055999;28;20499;-42
2021/11/07 16:05:24;;;;;;;29.70;3.00;;;;;;;;;;5045157;28;20020;-38
2021/11/07 16:08:13;;;;;;;19.27;3.58;;;;;;;;;;5056859;28;20060;-40
2021/11/07 16:13:22;;;;;;;20.45;3.50;;;;;;;;;;5054405;28;20035;-34
2021/11/07 16:16:06;;;;;;;27.05;3.53;;;;;;;;;;5061522;28;20028;-36
2021/11/07 16:18:35;;;;;;;25.90;3.45;;;;;;;;;;5058518;28;20047;-37
2021/11/07 16:21:02;;;;;;;19.98;3.00;;;;;;;;;;5058193;28;20032;-37
2021/11/07 16:23:29;;;;;;;25.20;3.50;;;;;;;;;;5061615;28;20103;-35
2021/11/07 16:25:58;;;;;;;22.02;3.05;;;;;;;;;;5060727;28;20079;-40
2021/11/07 16:28:26;;;;;;;23.23;3.50;;;;;;;;;;5058091;28;20032;-38
2021/11/07 16:31:01;;;;;;;30.73;3.47;;;;;;;;;;5062000;28;20017;-34
2021/11/07 16:33:31;;;;;;;29.20;3.75;;;;;;;;;;5063877;28;20028;-36
2021/11/07 16:36:43;;;;;;;23.75;3.58;;;;;;;;;;5060089;28;20025;-42
2021/11/07 16:39:04;;;;;;;23.45;3.03;;;;;;;;;;5050685;28;20024;-42
2021/11/07 16:41:45;;;;;;;20.52;3.00;;;;;;;;;;5059942;28;20032;-44
2021/11/07 16:44:13;;;;;;;22.02;3.55;;;;;;;;;;5061517;28;20025;-43
2021/11/07 16:47:06;;;;;;;20.23;3.75;;;;;;;;;;5061052;28;20029;-43
2021/11/07 16:49:31;;;;;;;25.23;3.22;;;;;;;;;;5060264;28;20052;-42
2021/11/07 16:54:29;;;;;;;24.38;3.45;;;;;;;;;;5056090;28;20025;-35
2021/11/07 16:56:57;;;;;;;20.60;2.97;;;;;;;;;;5033889;28;20028;-42
2021/11/07 16:59:41;;;;;;;20.10;3.10;;;;;;;;;;5053177;28;20459;-42
2021/11/07 17:04:48;;;;;;;26.77;3.00;;;;;;;;;;5056757;28;20033;-43
2021/11/07 17:07:21;;;;;;;12.52;2.40;;;;;;;;;;5055537;28;20036;-43
2021/11/07 17:09:55;;;;;;;18.63;2.90;;;;;;;;;;5057648;28;20025;-43
2021/11/07 17:12:27;;;;;;;21.02;3.28;;;;;;;;;;5057901;28;20475;-42
2021/11/07 17:15:02;;;;;;;18.05;2.55;;;;;;;;;;5067187;28;20036;-44
2021/11/07 17:18:17;;;;;;;14.18;3.22;;;;;;;;;;5065436;28;20055;-44
2021/11/07 17:23:07;;;;;;;19.85;3.40;;;;;;;;;;5068735;28;20051;-44
2021/11/07 17:25:42;;;;;;;;;;;;;;;;;;5066709;28;20025;-45
2021/11/07 17:28:35;;;;;;;26.08;2.83;;;;;;;;;;5064861;28;19909;-42